createdAt,value
2018-08-23T00:01:35.724Z,20.37
2018-08-23T00:04:08.148Z,22.17
2018-08-23T00:06:41.652Z,20.27
2018-08-23T00:09:12.329Z,19.90
2018-08-23T00:11:46.578Z,20.43
2018-08-23T00:14:17.852Z,18.43
2018-08-23T00:16:48.869Z,19.03
2018-08-23T00:19:19.518Z,20.70
2018-08-23T00:21:51.321Z,18.53
2018-08-23T00:24:23.293Z,22.97
2018-08-23T00:27:30.165Z,21.80
2018-08-23T00:30:00.852Z,22.37
2018-08-23T00:32:31.526Z,21.70
2018-08-23T00:35:02.240Z,22.07
2018-08-23T00:37:32.983Z,22.37
2018-08-23T00:40:07.661Z,25.30
2018-08-23T00:42:38.429Z,27.07
2018-08-23T00:45:18.001Z,30.27
2018-08-23T00:47:48.706Z,29.43
2018-08-23T00:51:05.247Z,29.83
2018-08-23T00:53:37.121Z,32.30
2018-08-23T00:56:18.484Z,30.43
2018-08-23T00:58:54.307Z,30.40
2018-08-23T01:01:25.006Z,29.27
2018-08-23T01:03:55.646Z,28.87
2018-08-23T01:06:46.141Z,33.37
2018-08-23T01:09:16.716Z,33.53
2018-08-23T01:11:47.428Z,32.77
2018-08-23T01:14:18.039Z,32.70
2018-08-23T01:17:07.841Z,35.03
2018-08-23T01:19:43.729Z,38.67
2018-08-23T01:22:14.362Z,34.73
2018-08-23T01:24:47.807Z,37.60
2018-08-23T01:27:52.638Z,34.90
2018-08-23T01:30:24.500Z,39.57
2018-08-23T01:32:55.232Z,37.50
2018-08-23T01:35:26.372Z,41.17
2018-08-23T01:37:57.062Z,41.77
2018-08-23T01:40:27.759Z,43.73
2018-08-23T01:42:58.471Z,38.20
2018-08-23T01:45:29.171Z,35.83
2018-08-23T01:48:00.843Z,41.23
2018-08-23T01:50:31.507Z,37.17
2018-08-23T01:53:02.232Z,35.90
2018-08-23T01:55:32.937Z,38.83
2018-08-23T01:58:03.616Z,37.33
2018-08-23T02:00:35.667Z,40.13
2018-08-23T02:03:06.525Z,37.33
2018-08-23T02:05:38.938Z,37.57
2018-08-23T02:08:09.622Z,41.23
2018-08-23T02:10:40.276Z,36.87
2018-08-23T02:13:16.288Z,38.43
2018-08-23T02:15:50.988Z,38.60
2018-08-23T02:18:21.664Z,38.03
2018-08-23T02:20:56.376Z,40.43
2018-08-23T02:23:27.078Z,40.70
2018-08-23T02:25:57.780Z,44.33
2018-08-23T02:28:28.468Z,38.47
2018-08-23T02:30:59.111Z,43.53
2018-08-23T02:33:29.754Z,38.47
2018-08-23T02:36:20.664Z,38.60
2018-08-23T02:38:59.941Z,39.90
2018-08-23T02:41:30.960Z,39.53
2018-08-23T02:44:01.681Z,42.43
2018-08-23T02:46:33.784Z,43.00
2018-08-23T02:49:04.458Z,39.23
2018-08-23T02:51:42.609Z,42.67
2018-08-23T02:54:14.442Z,41.97
2018-08-23T02:56:50.249Z,43.67
2018-08-23T02:59:20.939Z,44.77
2018-08-23T03:01:51.935Z,41.53
2018-08-23T03:04:24.609Z,41.20
2018-08-23T03:07:06.342Z,41.93
2018-08-23T03:09:38.938Z,40.57
2018-08-23T03:12:11.966Z,42.77
2018-08-23T03:14:42.625Z,45.03
2018-08-23T03:17:20.693Z,41.97
2018-08-23T03:20:18.806Z,40.00
2018-08-23T03:22:53.735Z,39.70
2018-08-23T03:25:25.572Z,43.03
2018-08-23T03:27:56.566Z,43.27
2018-08-23T03:30:27.249Z,42.07
2018-08-23T03:32:57.936Z,43.77
2018-08-23T03:35:28.603Z,41.03
2018-08-23T03:37:59.270Z,42.83
2018-08-23T03:40:29.926Z,45.10
2018-08-23T03:43:00.613Z,41.73
2018-08-23T03:45:31.285Z,46.23
2018-08-23T03:48:01.926Z,42.73
2018-08-23T03:50:38.032Z,42.93
2018-08-23T03:53:08.688Z,46.77
2018-08-23T03:55:39.343Z,44.20
2018-08-23T03:58:10.031Z,47.07
2018-08-23T04:01:05.833Z,42.47
2018-08-23T04:03:38.752Z,46.30
2018-08-23T04:06:32.163Z,43.97
2018-08-23T04:09:02.924Z,44.90
2018-08-23T04:11:33.612Z,42.10
2018-08-23T04:14:04.297Z,42.03
2018-08-23T04:16:35.207Z,46.80
2018-08-23T04:19:05.947Z,42.03
2018-08-23T04:21:36.636Z,44.27
2018-08-23T04:24:07.317Z,42.53
2018-08-23T04:26:37.970Z,44.27
2018-08-23T04:29:08.641Z,40.60
2018-08-23T04:31:39.289Z,46.70
2018-08-23T04:34:09.956Z,42.50
2018-08-23T04:36:40.682Z,42.33
2018-08-23T04:39:12.424Z,46.17
2018-08-23T04:41:43.834Z,40.07
2018-08-23T04:44:16.456Z,42.03
2018-08-23T04:46:47.128Z,43.00
2018-08-23T04:49:17.800Z,45.47
2018-08-23T04:51:48.538Z,43.53
2018-08-23T04:54:19.133Z,42.47
2018-08-23T04:56:49.827Z,43.80
2018-08-23T04:59:20.487Z,41.43
2018-08-23T05:01:51.147Z,41.30
2018-08-23T05:04:21.851Z,42.63
2018-08-23T05:06:52.521Z,42.97
2018-08-23T05:09:23.149Z,43.27
2018-08-23T05:11:54.461Z,46.60
2018-08-23T05:14:25.138Z,48.23
2018-08-23T05:16:55.858Z,48.73
2018-08-23T05:19:26.525Z,53.33
2018-08-23T05:21:57.240Z,47.70
2018-08-23T05:24:27.869Z,51.07
2018-08-23T05:26:58.572Z,48.03
2018-08-23T05:29:29.196Z,53.43
2018-08-23T05:31:59.882Z,51.10
2018-08-23T05:34:30.502Z,55.07
2018-08-23T05:37:01.212Z,49.83
2018-08-23T05:39:49.187Z,54.10
2018-08-23T05:42:38.518Z,49.40
2018-08-23T05:45:09.190Z,53.30
2018-08-23T05:47:39.847Z,50.90
2018-08-23T05:50:10.537Z,50.07
2018-08-23T05:52:41.252Z,50.87
2018-08-23T05:55:11.935Z,49.60
2018-08-23T05:57:42.616Z,49.97
2018-08-23T06:00:13.321Z,46.20
2018-08-23T06:02:44.036Z,46.07
2018-08-23T06:05:14.690Z,44.13
2018-08-23T06:07:45.346Z,46.93
2018-08-23T06:10:16.011Z,48.63
2018-08-23T06:12:46.669Z,45.10
2018-08-23T06:15:17.371Z,45.73
2018-08-23T06:17:48.133Z,46.80
2018-08-23T06:20:18.881Z,49.43
2018-08-23T06:22:49.648Z,44.53
2018-08-23T06:25:20.500Z,49.07
2018-08-23T06:27:51.171Z,46.37
2018-08-23T06:30:21.832Z,46.97
2018-08-23T06:32:56.640Z,47.57
2018-08-23T06:35:34.710Z,46.80
2018-08-23T06:38:05.859Z,48.90
2018-08-23T06:40:36.484Z,50.10
2018-08-23T06:43:07.198Z,49.73
2018-08-23T06:45:37.896Z,45.50
2018-08-23T06:48:08.560Z,44.60
2018-08-23T06:50:43.234Z,43.90
2018-08-23T06:53:13.912Z,43.07
2018-08-23T06:55:44.554Z,47.07
2018-08-23T06:58:16.129Z,48.37
2018-08-23T07:00:46.830Z,45.67
2018-08-23T07:03:17.472Z,48.90
2018-08-23T07:05:48.164Z,52.87
2018-08-23T07:08:18.845Z,49.73
2018-08-23T07:10:49.624Z,44.97
2018-08-23T07:13:20.265Z,48.27
2018-08-23T07:15:56.011Z,47.93
2018-08-23T07:18:26.682Z,48.93
2018-08-23T07:20:57.360Z,47.17
2018-08-23T07:23:36.579Z,45.97
2018-08-23T07:26:14.087Z,45.40
2018-08-23T07:28:44.745Z,44.57
2018-08-23T07:31:15.409Z,45.33
2018-08-23T07:33:50.347Z,46.90
2018-08-23T07:36:29.591Z,45.67
2018-08-23T07:39:00.342Z,45.53
2018-08-23T07:41:31.013Z,44.10
2018-08-23T07:44:01.721Z,44.23
2018-08-23T07:46:32.390Z,45.07
2018-08-23T07:49:03.131Z,45.03
2018-08-23T07:51:33.772Z,42.73
2018-08-23T07:54:08.494Z,41.43
2018-08-23T07:56:39.179Z,43.57
2018-08-23T07:59:09.862Z,34.83
2018-08-23T08:01:40.620Z,35.37
2018-08-23T08:04:11.648Z,32.50
2018-08-23T08:06:42.301Z,32.10
2018-08-23T08:09:13.115Z,31.70
2018-08-23T08:11:51.294Z,31.43
2018-08-23T08:14:27.118Z,28.90
2018-08-23T08:17:07.985Z,26.87
2018-08-23T08:19:41.065Z,28.67
2018-08-23T08:22:11.842Z,27.87
2018-08-23T08:24:42.505Z,29.97
2018-08-23T08:27:13.242Z,26.30
2018-08-23T08:29:43.925Z,26.00
2018-08-23T08:32:14.659Z,24.43
2018-08-23T08:34:45.398Z,25.07
2018-08-23T08:37:16.074Z,27.57
2018-08-23T08:39:46.720Z,26.90
2018-08-23T08:42:18.497Z,26.00
2018-08-23T08:44:49.312Z,24.07
2018-08-23T08:47:19.993Z,24.80
2018-08-23T08:49:50.695Z,22.43
2018-08-23T08:52:21.341Z,23.10
2018-08-23T08:54:51.981Z,25.13
2018-08-23T08:57:25.012Z,23.00
2018-08-23T08:59:55.711Z,22.10
2018-08-23T09:02:26.349Z,18.87
2018-08-23T09:04:57.116Z,16.77
2018-08-23T09:07:31.623Z,17.40
2018-08-23T09:10:02.285Z,18.93
2018-08-23T09:12:33.472Z,15.93
2018-08-23T09:15:04.196Z,16.87
2018-08-23T09:17:41.780Z,14.87
2018-08-23T09:20:13.606Z,16.30
2018-08-23T09:22:49.340Z,20.07
2018-08-23T09:25:28.660Z,14.83
2018-08-23T09:27:59.309Z,14.37
2018-08-23T09:30:31.390Z,14.27
2018-08-23T09:33:08.186Z,15.37
2018-08-23T09:35:39.043Z,17.23
2018-08-23T09:38:13.513Z,19.13
2018-08-23T09:40:44.123Z,17.90
2018-08-23T09:43:14.842Z,16.40
2018-08-23T09:45:45.612Z,13.63
2018-08-23T09:48:16.300Z,13.50
2018-08-23T09:50:47.018Z,14.37
2018-08-23T09:53:23.768Z,15.07
2018-08-23T09:55:56.139Z,12.77
2018-08-23T09:58:31.999Z,12.13
2018-08-23T10:01:07.871Z,11.07
2018-08-23T10:03:43.681Z,13.00
2018-08-23T10:06:28.763Z,11.27
2018-08-23T10:09:20.635Z,13.43
2018-08-23T10:11:56.558Z,15.63
2018-08-23T10:14:32.515Z,13.77
2018-08-23T10:17:08.446Z,14.57
2018-08-23T10:19:44.315Z,14.37
2018-08-23T10:22:38.235Z,16.77
2018-08-23T10:25:46.816Z,17.13
2018-08-23T10:28:18.930Z,17.57
2018-08-23T10:30:49.865Z,16.30
2018-08-23T10:33:20.645Z,13.80
2018-08-23T10:35:57.007Z,14.50
2018-08-23T10:38:28.903Z,12.50
2018-08-23T10:41:04.995Z,11.63
2018-08-23T10:43:41.024Z,14.00
2018-08-23T10:46:11.716Z,13.53
2018-08-23T10:48:42.403Z,16.30
2018-08-23T10:51:13.100Z,14.57
2018-08-23T10:53:43.842Z,13.30
2018-08-23T10:56:14.556Z,12.10
2018-08-23T10:58:45.202Z,11.57
2018-08-23T11:01:18.863Z,12.13
2018-08-23T11:03:49.508Z,11.23
2018-08-23T11:06:20.347Z,11.90
2018-08-23T11:08:56.013Z,14.03
2018-08-23T11:11:31.711Z,9.73
2018-08-23T11:14:07.975Z,12.57
2018-08-23T11:16:43.950Z,8.90
2018-08-23T11:19:19.849Z,9.50
2018-08-23T11:21:50.589Z,7.83
2018-08-23T11:24:21.212Z,6.63
2018-08-23T11:26:52.024Z,10.20
2018-08-23T11:29:23.334Z,7.17
2018-08-23T11:31:54.017Z,7.77
2018-08-23T11:34:24.740Z,8.93
2018-08-23T11:36:55.455Z,8.97
2018-08-23T11:39:26.061Z,7.07
2018-08-23T11:41:56.703Z,6.67
2018-08-23T11:44:27.407Z,7.73
2018-08-23T11:46:58.107Z,6.77
2018-08-23T11:49:28.708Z,7.40
2018-08-23T11:51:59.466Z,7.17
2018-08-23T11:54:30.164Z,7.70
2018-08-23T11:57:00.849Z,6.70
2018-08-23T11:59:31.531Z,5.47
2018-08-23T12:02:02.212Z,7.60
2018-08-23T12:04:32.889Z,4.67
2018-08-23T12:07:03.688Z,5.87
2018-08-23T12:09:34.457Z,6.87
2018-08-23T12:12:05.480Z,5.23
2018-08-23T12:14:36.202Z,5.97
2018-08-23T12:17:06.990Z,6.07
2018-08-23T12:19:37.689Z,4.10
2018-08-23T12:22:08.431Z,10.27
2018-08-23T12:24:39.071Z,4.80
2018-08-23T12:27:09.743Z,5.67
2018-08-23T12:29:40.432Z,4.70
2018-08-23T12:32:11.140Z,4.53
2018-08-23T12:34:41.855Z,6.13
2018-08-23T12:37:17.773Z,6.03
2018-08-23T12:39:53.702Z,5.10
2018-08-23T12:42:29.477Z,5.00
2018-08-23T12:45:00.096Z,5.43
2018-08-23T12:47:30.754Z,7.23
2018-08-23T12:50:04.912Z,7.10
2018-08-23T12:52:35.577Z,5.53
2018-08-23T12:55:06.483Z,4.90
2018-08-23T12:57:37.148Z,5.03
2018-08-23T13:00:07.877Z,5.77
2018-08-23T13:02:38.603Z,6.63
2018-08-23T13:05:09.264Z,3.93
2018-08-23T13:07:40.024Z,4.13
2018-08-23T13:10:10.733Z,5.60
2018-08-23T13:12:41.382Z,8.13
2018-08-23T13:15:12.074Z,4.47
2018-08-23T13:17:42.766Z,6.13
2018-08-23T13:20:13.488Z,4.90
2018-08-23T13:22:44.165Z,8.40
2018-08-23T13:25:15.365Z,5.30
2018-08-23T13:27:46.056Z,4.20
2018-08-23T13:30:16.872Z,4.80
2018-08-23T13:32:47.557Z,7.80
2018-08-23T13:35:18.320Z,5.90
2018-08-23T13:37:48.995Z,9.00
2018-08-23T13:40:21.530Z,8.93
2018-08-23T13:42:52.317Z,8.53
2018-08-23T13:45:22.922Z,6.10
2018-08-23T13:47:53.592Z,10.50
2018-08-23T13:50:24.257Z,6.80
2018-08-23T13:52:54.915Z,6.70
2018-08-23T13:55:25.591Z,6.90
2018-08-23T13:57:56.372Z,5.73
2018-08-23T14:00:32.316Z,6.73
2018-08-23T14:03:02.985Z,7.37
2018-08-23T14:05:33.685Z,6.13
2018-08-23T14:08:04.459Z,5.30
2018-08-23T14:10:35.339Z,5.10
2018-08-23T14:13:06.223Z,6.33
2018-08-23T14:15:42.008Z,6.70
2018-08-23T14:18:12.775Z,8.77
2018-08-23T14:20:43.506Z,6.87
2018-08-23T14:23:14.223Z,7.20
2018-08-23T14:25:44.875Z,7.23
2018-08-23T14:28:15.469Z,6.80
2018-08-23T14:30:46.124Z,6.23
2018-08-23T14:33:16.795Z,6.70
2018-08-23T14:35:47.524Z,5.77
2018-08-23T14:38:19.034Z,7.60
2018-08-23T14:40:49.697Z,6.40
2018-08-23T14:43:20.351Z,6.60
2018-08-23T14:45:51.057Z,5.47
2018-08-23T14:48:21.785Z,4.60
2018-08-23T14:50:52.775Z,5.83
2018-08-23T14:53:27.207Z,4.80
2018-08-23T14:56:02.972Z,4.77
2018-08-23T14:58:33.696Z,4.77
2018-08-23T15:01:04.415Z,5.93
2018-08-23T15:03:35.104Z,6.37
2018-08-23T15:06:05.752Z,7.43
2018-08-23T15:08:36.490Z,4.97
2018-08-23T15:11:07.190Z,6.50
2018-08-23T15:13:37.884Z,8.40
2018-08-23T15:16:08.701Z,7.20
2018-08-23T15:18:39.337Z,7.47
2018-08-23T15:21:10.026Z,6.23
2018-08-23T15:23:40.990Z,5.90
2018-08-23T15:26:11.837Z,6.73
2018-08-23T15:28:42.615Z,6.23
2018-08-23T15:31:13.368Z,7.30
2018-08-23T15:33:44.101Z,5.43
2018-08-23T15:36:14.789Z,10.10
2018-08-23T15:38:45.526Z,9.47
2018-08-23T15:41:16.356Z,8.20
2018-08-23T15:43:47.040Z,11.10
2018-08-23T15:46:17.791Z,7.47
2018-08-23T15:48:48.560Z,7.80
2018-08-23T15:51:19.345Z,7.90
2018-08-23T15:53:50.023Z,11.10
2018-08-23T15:56:20.985Z,9.90
2018-08-23T15:58:51.624Z,9.60
2018-08-23T16:01:22.347Z,9.93
2018-08-23T16:03:52.950Z,10.13
2018-08-23T16:06:23.750Z,9.43
2018-08-23T16:08:54.479Z,8.83
2018-08-23T16:11:26.054Z,16.20
2018-08-23T16:13:56.822Z,8.50
2018-08-23T16:16:32.796Z,11.17
2018-08-23T16:19:08.806Z,8.50
2018-08-23T16:21:40.380Z,9.30
2018-08-23T16:24:12.205Z,8.70
2018-08-23T16:26:48.116Z,12.03
2018-08-23T16:29:18.873Z,9.13
2018-08-23T16:31:49.600Z,6.60
2018-08-23T16:34:20.558Z,10.07
2018-08-23T16:36:51.360Z,7.40
2018-08-23T16:39:22.183Z,6.70
2018-08-23T16:41:52.955Z,5.97
2018-08-23T16:44:23.589Z,9.27
2018-08-23T16:46:54.257Z,7.33
2018-08-23T16:49:24.945Z,6.73
2018-08-23T16:51:55.587Z,6.60
2018-08-23T16:54:26.300Z,6.07
2018-08-23T16:56:56.954Z,5.93
2018-08-23T16:59:27.619Z,7.80
2018-08-23T17:01:58.310Z,9.03
2018-08-23T17:04:34.146Z,7.73
2018-08-23T17:07:04.776Z,7.23
2018-08-23T17:09:35.502Z,8.23
2018-08-23T17:12:06.349Z,7.23
2018-08-23T17:14:37.065Z,7.67
2018-08-23T17:17:12.930Z,8.47
2018-08-23T17:19:43.592Z,8.73
2018-08-23T17:22:14.855Z,7.50
2018-08-23T17:24:45.483Z,8.73
2018-08-23T17:27:16.242Z,9.17
2018-08-23T17:29:46.967Z,8.30
2018-08-23T17:32:17.608Z,9.53
2018-08-23T17:34:48.307Z,10.90
2018-08-23T17:37:18.967Z,10.50
2018-08-23T17:39:49.659Z,10.63
2018-08-23T17:42:20.413Z,10.83
2018-08-23T17:44:51.150Z,8.90
2018-08-23T17:47:21.923Z,8.70
2018-08-23T17:49:52.565Z,7.63
2018-08-23T17:52:23.383Z,8.50
2018-08-23T17:54:54.076Z,8.13
2018-08-23T17:57:24.716Z,7.87
2018-08-23T17:59:55.431Z,9.80
2018-08-23T18:02:26.188Z,10.17
2018-08-23T18:04:57.266Z,9.37
2018-08-23T18:07:28.062Z,9.43
2018-08-23T18:09:58.765Z,13.33
2018-08-23T18:12:29.561Z,9.77
2018-08-23T18:15:00.444Z,9.23
2018-08-23T18:17:31.231Z,7.83
2018-08-23T18:20:02.087Z,9.20
2018-08-23T18:22:33.397Z,8.37
2018-08-23T18:25:04.569Z,8.10
2018-08-23T18:27:35.605Z,7.43
2018-08-23T18:30:06.750Z,8.47
2018-08-23T18:32:37.548Z,8.40
2018-08-23T18:35:08.333Z,7.70
2018-08-23T18:37:39.168Z,8.50
2018-08-23T18:40:09.801Z,8.43
2018-08-23T18:42:40.574Z,7.50
2018-08-23T18:45:11.403Z,7.53
2018-08-23T18:47:42.218Z,8.07
2018-08-23T18:50:13.180Z,7.23
2018-08-23T18:52:43.879Z,7.20
2018-08-23T18:55:14.682Z,7.57
2018-08-23T18:57:45.443Z,6.80
2018-08-23T19:00:17.780Z,8.37
2018-08-23T19:02:48.461Z,7.60
2018-08-23T19:05:19.168Z,7.27
2018-08-23T19:07:49.924Z,6.83
2018-08-23T19:10:20.771Z,8.20
2018-08-23T19:12:51.491Z,9.10
2018-08-23T19:15:27.433Z,6.37
2018-08-23T19:17:58.239Z,8.70
2018-08-23T19:20:29.041Z,5.70
2018-08-23T19:22:59.804Z,7.40
2018-08-23T19:25:30.667Z,5.70
2018-08-23T19:28:01.366Z,7.33
2018-08-23T19:30:32.139Z,5.80
2018-08-23T19:33:03.402Z,5.13
2018-08-23T19:35:33.739Z,7.60
2018-08-23T19:38:04.473Z,7.80
2018-08-23T19:40:35.287Z,7.13
2018-08-23T19:43:06.343Z,5.17
2018-08-23T19:45:42.339Z,7.27
2018-08-23T19:48:13.259Z,6.50
2018-08-23T19:50:43.981Z,8.63
2018-08-23T19:53:14.880Z,5.77
2018-08-23T19:55:45.790Z,6.20
2018-08-23T19:58:16.448Z,6.57
2018-08-23T20:00:47.391Z,6.27
2018-08-23T20:03:18.108Z,5.93
2018-08-23T20:05:48.758Z,5.20
2018-08-23T20:08:19.658Z,7.37
2018-08-23T20:10:50.344Z,5.90
2018-08-23T20:13:21.051Z,6.93
2018-08-23T20:15:51.757Z,5.50
2018-08-23T20:18:22.520Z,5.83
2018-08-23T20:20:53.199Z,6.07
2018-08-23T20:23:23.991Z,6.10
2018-08-23T20:25:54.908Z,6.97
2018-08-23T20:28:25.813Z,6.57
2018-08-23T20:30:56.505Z,6.67
2018-08-23T20:33:27.620Z,7.10
2018-08-23T20:35:58.546Z,4.97
2018-08-23T20:38:29.466Z,5.87
2018-08-23T20:41:00.553Z,4.13
2018-08-23T20:43:31.167Z,4.63
2018-08-23T20:46:01.788Z,4.73
2018-08-23T20:48:32.511Z,3.97
2018-08-23T20:51:03.197Z,4.17
2018-08-23T20:53:33.808Z,4.07
2018-08-23T20:56:04.897Z,4.83
2018-08-23T20:58:35.594Z,4.40
2018-08-23T21:01:06.274Z,4.93
2018-08-23T21:03:36.900Z,3.77
2018-08-23T21:06:07.599Z,4.43
2018-08-23T21:08:38.218Z,3.67
2018-08-23T21:11:08.930Z,3.90
2018-08-23T21:13:39.642Z,4.40
2018-08-23T21:16:10.389Z,3.00
2018-08-23T21:18:41.030Z,4.87
2018-08-23T21:21:11.708Z,4.57
2018-08-23T21:23:42.324Z,4.00
2018-08-23T21:26:12.991Z,4.13
2018-08-23T21:28:43.726Z,3.10
2018-08-23T21:31:14.423Z,3.20
2018-08-23T21:33:45.066Z,2.97
2018-08-23T21:36:15.696Z,2.90
2018-08-23T21:38:46.922Z,5.80
2018-08-23T21:41:17.576Z,7.40
2018-08-23T21:43:48.217Z,2.80
2018-08-23T21:46:18.899Z,2.73
2018-08-23T21:48:49.506Z,3.47
2018-08-23T21:51:20.141Z,2.70
2018-08-23T21:53:50.845Z,2.63
2018-08-23T21:56:21.510Z,3.27
2018-08-23T21:58:52.237Z,2.20
2018-08-23T22:01:22.895Z,2.27
2018-08-23T22:03:53.551Z,2.97
2018-08-23T22:06:24.154Z,3.73
2018-08-23T22:08:54.784Z,2.30
2018-08-23T22:11:25.403Z,3.57
2018-08-23T22:13:56.069Z,2.60
2018-08-23T22:16:27.062Z,2.93
2018-08-23T22:18:57.702Z,2.80
2018-08-23T22:21:28.352Z,3.03
2018-08-23T22:23:59.009Z,2.30
2018-08-23T22:26:29.693Z,2.30
2018-08-23T22:29:00.342Z,2.83
2018-08-23T22:31:31.027Z,2.93
2018-08-23T22:34:01.697Z,3.60
2018-08-23T22:36:32.365Z,2.63
2018-08-23T22:39:03.096Z,3.53
2018-08-23T22:41:33.693Z,4.70
2018-08-23T22:44:04.393Z,2.10
2018-08-23T22:46:35.190Z,2.63
2018-08-23T22:49:05.904Z,2.20
2018-08-23T22:51:36.541Z,3.90
2018-08-23T22:54:07.310Z,2.37
2018-08-23T22:56:37.916Z,2.70
2018-08-23T22:59:08.534Z,2.07
2018-08-23T23:01:39.720Z,2.33
2018-08-23T23:04:15.478Z,3.83
2018-08-23T23:06:46.210Z,1.90
2018-08-23T23:09:16.916Z,2.07
2018-08-23T23:11:50.401Z,2.00
2018-08-23T23:14:21.181Z,1.63
2018-08-23T23:16:55.784Z,1.73
2018-08-23T23:19:26.728Z,3.60
2018-08-23T23:21:57.355Z,1.80
2018-08-23T23:24:33.160Z,2.47
2018-08-23T23:27:03.771Z,2.97
2018-08-23T23:29:34.400Z,3.23
2018-08-23T23:32:05.306Z,1.33
2018-08-23T23:34:35.919Z,1.70
2018-08-23T23:37:07.712Z,1.60
2018-08-23T23:39:38.427Z,2.40
2018-08-23T23:42:40.109Z,2.10
2018-08-23T23:45:10.738Z,2.10
2018-08-23T23:47:41.443Z,1.53
2018-08-23T23:50:12.085Z,3.03
2018-08-23T23:52:42.687Z,1.80
2018-08-23T23:55:13.361Z,1.40
2018-08-23T23:57:43.996Z,2.03
